Time,TemperatureF,DewpointF,PressureIn,WindDirection,WindDirectionDegrees,WindSpeedMPH,WindSpeedGustMPH,Humidity,HourlyPrecipIn,Conditions,Clouds,dailyrainin,SoftwareType,DateUTC
2017-03-23 00:03:00,28.9,22.6,30.65,NNE,27,0.0,0.0,77,0.00,,,0.00,meteohub,2017-03-23 04:03:00,
2017-03-23 00:08:00,28.9,22.6,30.66,NNE,12,0.0,0.0,77,0.00,,,0.00,meteohub,2017-03-23 04:08:00,
2017-03-23 00:13:00,28.8,22.5,30.66,NE,45,0.0,0.0,77,0.00,,,0.00,meteohub,2017-03-23 04:13:00,
2017-03-23 00:18:00,28.8,22.5,30.65,NE,39,0.0,0.0,77,0.00,,,0.00,meteohub,2017-03-23 04:18:00,
2017-03-23 00:23:00,28.8,22.5,30.65,NNE,25,0.0,0.0,77,0.00,,,0.00,meteohub,2017-03-23 04:23:00,
2017-03-23 00:28:00,28.6,22.3,30.65,NE,41,0.0,1.0,77,0.00,,,0.00,meteohub,2017-03-23 04:28:00,
2017-03-23 00:33:00,28.6,22.3,30.65,NNE,26,0.0,1.0,77,0.00,,,0.00,meteohub,2017-03-23 04:33:00,
2017-03-23 00:38:00,28.4,22.1,30.65,NNE,30,0.0,1.0,77,0.00,,,0.00,meteohub,2017-03-23 04:38:00,
2017-03-23 00:43:00,28.2,21.9,30.65,NE,40,0.0,0.0,77,0.00,,,0.00,meteohub,2017-03-23 04:43:00,
2017-03-23 00:48:00,28.2,21.9,30.65,North,350,0.0,1.0,77,0.00,,,0.00,meteohub,2017-03-23 04:48:00,
2017-03-23 00:53:00,28.2,21.9,30.66,NE,36,0.0,1.0,77,0.00,,,0.00,meteohub,2017-03-23 04:53:00,
2017-03-23 00:58:00,28.2,21.9,30.65,NNE,24,0.0,1.0,77,0.00,,,0.00,meteohub,2017-03-23 04:58:00,
2017-03-23 00:59:00,28.2,21.9,30.65,NE,39,0.0,1.0,77,0.00,,,0.00,meteohub,2017-03-23 04:59:00,
2017-03-23 01:04:00,28.0,22.1,30.65,NNE,32,0.0,0.0,78,0.00,,,0.00,meteohub,2017-03-23 05:04:00,
2017-03-23 01:09:00,28.0,22.1,30.66,NE,34,0.0,0.0,78,0.00,,,0.00,meteohub,2017-03-23 05:09:00,
2017-03-23 01:14:00,27.9,21.9,30.65,NNE,28,0.0,0.0,78,0.00,,,0.00,meteohub,2017-03-23 05:14:00,
2017-03-23 01:19:00,27.7,21.7,30.65,NNE,23,0.0,0.0,78,0.00,,,0.00,meteohub,2017-03-23 05:19:00,
2017-03-23 01:24:00,27.7,22.1,30.65,NNE,30,0.0,0.0,79,0.00,,,0.00,meteohub,2017-03-23 05:24:00,
2017-03-23 01:29:00,27.5,21.9,30.65,NE,46,0.0,0.0,79,0.00,,,0.00,meteohub,2017-03-23 05:29:00,
2017-03-23 01:34:00,27.3,21.7,30.65,NNE,32,0.0,0.0,79,0.00,,,0.00,meteohub,2017-03-23 05:34:00,
2017-03-23 01:39:00,27.3,21.7,30.64,NNE,33,0.0,0.0,79,0.00,,,0.00,meteohub,2017-03-23 05:39:00,
2017-03-23 01:44:00,27.3,21.9,30.64,NE,34,0.0,0.0,80,0.00,,,0.00,meteohub,2017-03-23 05:44:00,
2017-03-23 01:49:00,27.1,21.7,30.65,NNE,27,0.0,0.0,80,0.00,,,0.00,meteohub,2017-03-23 05:49:00,
2017-03-23 01:54:00,27.1,21.7,30.65,NNE,32,0.0,0.0,80,0.00,,,0.00,meteohub,2017-03-23 05:54:00,
2017-03-23 01:59:00,27.0,21.6,30.65,NNE,30,0.0,0.0,80,0.00,,,0.00,meteohub,2017-03-23 05:59:00,
2017-03-23 02:04:00,27.0,21.6,30.65,NE,39,0.0,0.0,80,0.00,,,0.00,meteohub,2017-03-23 06:04:00,
2017-03-23 02:09:00,27.0,21.6,30.65,NNE,27,0.0,0.0,80,0.00,,,0.00,meteohub,2017-03-23 06:09:00,
2017-03-23 02:15:00,27.0,21.9,30.65,NNE,30,0.0,0.0,81,0.00,,,0.00,meteohub,2017-03-23 06:15:00,
2017-03-23 02:20:00,27.0,21.9,30.64,NE,39,0.0,0.0,81,0.00,,,0.00,meteohub,2017-03-23 06:20:00,
2017-03-23 02:25:00,26.8,21.7,30.64,NE,45,0.0,0.0,81,0.00,,,0.00,meteohub,2017-03-23 06:25:00,
2017-03-23 02:30:00,27.0,21.9,30.64,NE,41,0.0,0.0,81,0.00,,,0.00,meteohub,2017-03-23 06:30:00,
2017-03-23 02:35:00,27.1,21.7,30.64,NNE,23,0.0,0.0,80,0.00,,,0.00,meteohub,2017-03-23 06:35:00,
2017-03-23 02:40:00,27.0,21.6,30.64,NNE,21,0.0,0.0,80,0.00,,,0.00,meteohub,2017-03-23 06:40:00,
2017-03-23 02:45:00,27.0,21.6,30.64,NE,37,0.0,0.0,80,0.00,,,0.00,meteohub,2017-03-23 06:45:00,
2017-03-23 02:50:00,27.0,21.9,30.64,NE,44,0.0,0.0,81,0.00,,,0.00,meteohub,2017-03-23 06:50:00,
2017-03-23 02:55:00,26.8,21.7,30.64,NE,43,0.0,1.0,81,0.00,,,0.00,meteohub,2017-03-23 06:55:00,
2017-03-23 03:00:00,26.8,21.7,30.64,NNE,23,0.0,1.0,81,0.00,,,0.00,meteohub,2017-03-23 07:00:00,
2017-03-23 03:05:00,26.8,21.7,30.64,NNE,25,0.0,1.0,81,0.00,,,0.00,meteohub,2017-03-23 07:05:00,
2017-03-23 03:10:00,26.8,21.7,30.64,NE,43,0.0,0.0,81,0.00,,,0.00,meteohub,2017-03-23 07:10:00,
2017-03-23 03:15:00,26.8,21.7,30.64,NE,53,0.0,1.0,81,0.00,,,0.00,meteohub,2017-03-23 07:15:00,
2017-03-23 03:20:00,27.0,21.9,30.64,NE,39,0.0,1.0,81,0.00,,,0.00,meteohub,2017-03-23 07:20:00,
2017-03-23 03:25:00,27.0,21.6,30.64,NE,45,0.0,1.0,80,0.00,,,0.00,meteohub,2017-03-23 07:25:00,
2017-03-23 03:30:00,27.0,21.6,30.64,NE,39,0.0,1.0,80,0.00,,,0.00,meteohub,2017-03-23 07:30:00,
2017-03-23 03:35:00,27.0,21.6,30.64,NNE,27,0.0,1.0,80,0.00,,,0.00,meteohub,2017-03-23 07:35:00,
2017-03-23 03:40:00,27.0,21.4,30.63,NNE,30,0.0,1.0,79,0.00,,,0.00,meteohub,2017-03-23 07:40:00,
2017-03-23 03:45:00,27.0,21.4,30.63,NE,34,0.0,1.0,79,0.00,,,0.00,meteohub,2017-03-23 07:45:00,
2017-03-23 03:50:00,26.8,21.4,30.63,NNE,19,0.0,1.0,80,0.00,,,0.00,meteohub,2017-03-23 07:50:00,
2017-03-23 03:55:00,26.8,21.4,30.63,NNE,20,0.0,1.0,80,0.00,,,0.00,meteohub,2017-03-23 07:55:00,
2017-03-23 04:00:00,26.6,21.2,30.63,NE,37,0.0,1.0,80,0.00,,,0.00,meteohub,2017-03-23 08:00:00,
2017-03-23 04:05:00,26.4,21.0,30.63,NE,39,0.0,1.0,80,0.00,,,0.00,meteohub,2017-03-23 08:05:00,
2017-03-23 04:10:00,26.2,20.8,30.63,NE,34,0.0,0.0,80,0.00,,,0.00,meteohub,2017-03-23 08:10:00,
2017-03-23 04:15:00,26.2,20.8,30.63,NNE,19,0.0,0.0,80,0.00,,,0.00,meteohub,2017-03-23 08:15:00,
2017-03-23 04:20:00,26.4,21.0,30.63,NNE,28,0.0,0.0,80,0.00,,,0.00,meteohub,2017-03-23 08:20:00,
2017-03-23 04:25:00,26.2,20.8,30.63,NE,34,0.0,1.0,80,0.00,,,0.00,meteohub,2017-03-23 08:25:00,
2017-03-23 04:30:00,26.2,20.8,30.64,NE,41,0.0,1.0,80,0.00,,,0.00,meteohub,2017-03-23 08:30:00,
2017-03-23 04:35:00,26.2,20.8,30.64,NNE,32,0.0,1.0,80,0.00,,,0.00,meteohub,2017-03-23 08:35:00,
2017-03-23 04:40:00,26.1,20.7,30.63,NE,46,0.0,0.0,80,0.00,,,0.00,meteohub,2017-03-23 08:40:00,
2017-03-23 04:45:00,26.2,20.8,30.64,North,8,0.0,0.0,80,0.00,,,0.00,meteohub,2017-03-23 08:45:00,
2017-03-23 04:50:00,26.1,20.5,30.64,NE,41,0.0,0.0,79,0.00,,,0.00,meteohub,2017-03-23 08:50:00,
2017-03-23 04:55:00,26.1,20.5,30.64,NE,44,0.0,0.0,79,0.00,,,0.00,meteohub,2017-03-23 08:55:00,
2017-03-23 05:00:00,26.1,20.5,30.64,North,351,0.0,1.0,79,0.00,,,0.00,meteohub,2017-03-23 09:00:00,
2017-03-23 05:05:00,26.1,20.5,30.64,NE,43,0.0,1.0,79,0.00,,,0.00,meteohub,2017-03-23 09:05:00,
2017-03-23 05:10:00,26.1,20.5,30.64,ENE,66,0.0,1.0,79,0.00,,,0.00,meteohub,2017-03-23 09:10:00,
2017-03-23 05:16:00,26.1,20.5,30.63,NE,44,0.0,0.0,79,0.00,,,0.00,meteohub,2017-03-23 09:16:00,
2017-03-23 05:21:00,26.1,20.1,30.63,NNE,26,0.0,0.0,78,0.00,,,0.00,meteohub,2017-03-23 09:21:00,
2017-03-23 05:26:00,26.1,20.1,30.63,ENE,57,0.0,8.0,78,0.00,,,0.00,meteohub,2017-03-23 09:26:00,
2017-03-23 05:31:00,26.2,20.3,30.63,NE,37,0.0,8.0,78,0.00,,,0.00,meteohub,2017-03-23 09:31:00,
2017-03-23 05:36:00,26.2,20.3,30.63,NE,44,0.0,1.0,78,0.00,,,0.00,meteohub,2017-03-23 09:36:00,
2017-03-23 05:41:00,26.2,19.9,30.63,NE,54,0.0,1.0,77,0.00,,,0.00,meteohub,2017-03-23 09:41:00,
2017-03-23 05:46:00,26.2,19.9,30.63,NE,44,0.0,1.0,77,0.00,,,0.00,meteohub,2017-03-23 09:46:00,
2017-03-23 05:51:00,26.2,19.9,30.63,NNE,27,2.0,7.0,77,0.00,,,0.00,meteohub,2017-03-23 09:51:00,
2017-03-23 05:56:00,26.2,19.8,30.63,NE,44,0.0,9.0,76,0.00,,,0.00,meteohub,2017-03-23 09:56:00,
2017-03-23 06:01:00,26.2,19.8,30.63,ENE,67,0.0,10.0,76,0.00,,,0.00,meteohub,2017-03-23 10:01:00,
2017-03-23 06:06:00,26.2,19.8,30.63,NE,50,4.0,10.0,76,0.00,,,0.00,meteohub,2017-03-23 10:06:00,
2017-03-23 06:11:00,26.2,19.8,30.63,NE,46,0.0,12.0,76,0.00,,,0.00,meteohub,2017-03-23 10:11:00,
2017-03-23 06:16:00,26.2,19.8,30.63,NE,46,9.0,12.0,76,0.00,,,0.00,meteohub,2017-03-23 10:16:00,
2017-03-23 06:21:00,26.2,19.8,30.63,NE,34,2.0,11.0,76,0.00,,,0.00,meteohub,2017-03-23 10:21:00,
2017-03-23 06:26:00,26.2,19.4,30.63,NE,45,1.0,12.0,75,0.00,,,0.00,meteohub,2017-03-23 10:26:00,
2017-03-23 06:31:00,26.2,19.4,30.63,NE,35,0.0,12.0,75,0.00,,,0.00,meteohub,2017-03-23 10:31:00,
2017-03-23 06:36:00,26.2,19.4,30.62,NE,46,4.0,12.0,75,0.00,,,0.00,meteohub,2017-03-23 10:36:00,
2017-03-23 06:41:00,26.1,19.2,30.63,NE,44,0.0,9.0,75,0.00,,,0.00,meteohub,2017-03-23 10:41:00,
2017-03-23 06:46:00,26.1,19.2,30.63,NNE,24,5.0,9.0,75,0.00,,,0.00,meteohub,2017-03-23 10:46:00,
2017-03-23 06:51:00,26.1,19.2,30.63,NE,56,0.0,8.0,75,0.00,,,0.00,meteohub,2017-03-23 10:51:00,
2017-03-23 06:56:00,25.9,19.0,30.63,NE,46,0.0,8.0,75,0.00,,,0.00,meteohub,2017-03-23 10:56:00,
2017-03-23 07:01:00,25.9,19.0,30.63,ENE,59,0.0,10.0,75,0.00,,,0.00,meteohub,2017-03-23 11:01:00,
2017-03-23 07:06:00,25.9,19.0,30.63,NE,34,0.0,10.0,75,0.00,,,0.00,meteohub,2017-03-23 11:06:00,
2017-03-23 07:11:00,25.9,19.0,30.63,NE,37,0.0,10.0,75,0.00,,,0.00,meteohub,2017-03-23 11:11:00,
2017-03-23 07:16:00,25.9,19.0,30.64,ENE,61,0.0,9.0,75,0.00,,,0.00,meteohub,2017-03-23 11:16:00,
2017-03-23 07:21:00,25.7,18.9,30.64,NE,34,0.0,9.0,75,0.00,,,0.00,meteohub,2017-03-23 11:21:00,
2017-03-23 07:26:00,25.9,19.0,30.63,NE,44,1.0,7.0,75,0.00,,,0.00,meteohub,2017-03-23 11:26:00,
2017-03-23 07:31:00,25.9,19.0,30.63,NE,42,3.0,7.0,75,0.00,,,0.00,meteohub,2017-03-23 11:31:00,
2017-03-23 07:36:00,25.9,19.0,30.63,NE,49,0.0,8.0,75,0.00,,,0.00,meteohub,2017-03-23 11:36:00,
2017-03-23 07:41:00,25.9,19.0,30.63,NE,49,5.0,8.0,75,0.00,,,0.00,meteohub,2017-03-23 11:41:00,
2017-03-23 07:47:00,26.1,19.2,30.63,ENE,65,0.0,11.0,75,0.00,,,0.00,meteohub,2017-03-23 11:47:00,
2017-03-23 07:52:00,26.1,19.2,30.63,NE,37,5.0,11.0,75,0.00,,,0.00,meteohub,2017-03-23 11:52:00,
2017-03-23 07:57:00,26.1,18.9,30.63,ENE,66,7.0,12.0,74,0.00,,,0.00,meteohub,2017-03-23 11:57:00,
2017-03-23 08:02:00,26.1,19.2,30.63,NE,47,6.0,12.0,75,0.00,,,0.00,meteohub,2017-03-23 12:02:00,
2017-03-23 08:07:00,26.2,19.4,30.63,ENE,72,3.0,12.0,75,0.00,,,0.00,meteohub,2017-03-23 12:07:00,
2017-03-23 08:12:00,26.2,19.0,30.63,NE,34,5.0,12.0,74,0.00,,,0.00,meteohub,2017-03-23 12:12:00,
2017-03-23 08:17:00,26.4,19.2,30.64,NNE,27,2.0,12.0,74,0.00,,,0.00,meteohub,2017-03-23 12:17:00,
2017-03-23 08:22:00,26.4,19.2,30.64,NE,51,0.0,12.0,74,0.00,,,0.00,meteohub,2017-03-23 12:22:00,
2017-03-23 08:27:00,26.8,19.6,30.65,NNE,27,0.0,10.0,74,0.00,,,0.00,meteohub,2017-03-23 12:27:00,
2017-03-23 08:32:00,27.0,19.8,30.65,NNE,30,0.0,8.0,74,0.00,,,0.00,meteohub,2017-03-23 12:32:00,
2017-03-23 08:37:00,27.3,20.1,30.66,NE,50,0.0,3.0,74,0.00,,,0.00,meteohub,2017-03-23 12:37:00,
2017-03-23 08:42:00,27.9,20.3,30.66,NNE,25,0.0,1.0,73,0.00,,,0.00,meteohub,2017-03-23 12:42:00,
2017-03-23 08:47:00,28.0,20.5,30.65,NE,42,0.0,0.0,73,0.00,,,0.00,meteohub,2017-03-23 12:47:00,
2017-03-23 08:52:00,28.2,20.3,30.64,NE,53,0.0,2.0,72,0.00,,,0.00,meteohub,2017-03-23 12:52:00,
2017-03-23 08:57:00,28.6,20.7,30.64,NE,56,0.0,3.0,72,0.00,,,0.00,meteohub,2017-03-23 12:57:00,
2017-03-23 09:02:00,28.8,20.5,30.64,ENE,72,8.0,8.0,71,0.00,,,0.00,meteohub,2017-03-23 13:02:00,
2017-03-23 09:07:00,28.9,20.5,30.64,NE,50,5.0,10.0,70,0.00,,,0.00,meteohub,2017-03-23 13:07:00,
2017-03-23 09:12:00,29.1,20.5,30.63,NE,49,13.0,17.0,70,0.00,,,0.00,meteohub,2017-03-23 13:12:00,
2017-03-23 09:17:00,28.9,20.1,30.63,ENE,64,12.0,18.0,69,0.00,,,0.00,meteohub,2017-03-23 13:17:00,
2017-03-23 09:22:00,29.3,20.7,30.63,NE,42,6.0,18.0,70,0.00,,,0.00,meteohub,2017-03-23 13:22:00,